createdAt,value
2019-04-02T00:43:55.959Z,19.60
2019-04-02T00:44:55.690Z,21.39
2019-04-02T00:45:55.625Z,16.70
2019-04-02T00:46:55.616Z,19.50
2019-04-02T00:47:55.604Z,21.20
2019-04-02T00:48:55.591Z,21.10
2019-04-02T00:49:55.577Z,11.89
2019-04-02T00:50:55.716Z,15.39
2019-04-02T00:51:55.554Z,17.10
2019-04-02T00:52:55.548Z,14.60
2019-04-02T00:53:55.538Z,15.69
2019-04-02T00:54:55.526Z,18.79
2019-04-02T00:55:55.515Z,19.70
2019-04-02T00:56:56.305Z,17.60
2019-04-02T00:57:55.559Z,20.39
2019-04-02T00:58:55.477Z,20.89
2019-04-02T00:59:55.467Z,19.29
2019-04-02T01:00:55.458Z,12.60
2019-04-02T01:01:55.451Z,19.70
2019-04-02T01:02:55.490Z,14.30
2019-04-02T01:03:55.426Z,14.30
2019-04-02T01:04:55.417Z,17.50
2019-04-02T01:05:55.401Z,17.20
2019-04-02T01:06:55.391Z,12.30
2019-04-02T01:07:55.381Z,19.10
2019-04-02T01:08:55.525Z,15.19
2019-04-02T01:09:56.053Z,15.89
2019-04-02T01:10:55.346Z,19.20
2019-04-02T01:11:55.335Z,27.29
2019-04-02T01:12:55.323Z,13.80
2019-04-02T01:13:55.315Z,19.50
2019-04-02T01:14:55.351Z,19.89
2019-04-02T01:15:55.294Z,15.19
2019-04-02T01:16:55.287Z,14.10
2019-04-02T01:17:55.274Z,17.60
2019-04-02T01:18:55.264Z,20.79
2019-04-02T01:19:55.251Z,15.60
2019-04-02T01:20:55.340Z,20.29
2019-04-02T01:21:49.879Z,25.10
2019-04-02T01:22:49.865Z,27.39
2019-04-02T01:23:49.855Z,23.29
2019-04-02T01:24:49.848Z,28.89
2019-04-02T01:25:49.832Z,31.20
2019-04-02T01:26:50.072Z,28.70
2019-04-02T01:27:49.808Z,27.50
2019-04-02T01:28:50.090Z,33.90
2019-04-02T01:29:49.787Z,28.20
2019-04-02T01:30:49.778Z,33.00
2019-04-02T01:31:49.765Z,31.70
2019-04-02T01:32:49.853Z,31.00
2019-04-02T01:33:49.742Z,26.50
2019-04-02T01:34:49.731Z,28.39
2019-04-02T01:35:49.721Z,28.70
2019-04-02T01:36:49.713Z,26.10
2019-04-02T01:37:49.702Z,22.89
2019-04-02T01:38:49.743Z,32.59
2019-04-02T01:39:49.678Z,33.09
2019-04-02T01:40:49.676Z,36.70
2019-04-02T01:41:49.661Z,39.50
2019-04-02T01:42:49.644Z,37.40
2019-04-02T01:43:49.637Z,33.40
2019-04-02T01:44:50.313Z,33.20
2019-04-02T01:45:49.622Z,26.60
2019-04-02T01:46:49.605Z,29.00
2019-04-02T01:47:49.593Z,25.20
2019-04-02T01:48:49.576Z,24.39
2019-04-02T01:49:49.569Z,23.70
2019-04-02T01:50:49.659Z,23.60
2019-04-02T01:51:49.549Z,25.60
2019-04-02T01:52:49.541Z,25.39
2019-04-02T01:53:49.526Z,20.89
2019-04-02T01:54:49.512Z,23.00
2019-04-02T01:55:49.502Z,21.10
2019-04-02T01:56:49.541Z,27.29
2019-04-02T01:57:50.198Z,23.10
2019-04-02T01:58:49.472Z,26.00
2019-04-02T01:59:49.459Z,36.29
2019-04-02T02:00:50.789Z,32.29
2019-04-02T02:01:50.202Z,42.90
2019-04-02T02:02:49.676Z,26.50
2019-04-02T02:03:49.415Z,37.59
2019-04-02T02:04:49.401Z,43.00
2019-04-02T02:05:49.396Z,32.29
2019-04-02T02:06:49.385Z,33.09
2019-04-02T02:08:02.121Z,37.20
2019-04-02T02:08:49.423Z,36.09
2019-04-02T02:09:49.357Z,36.79
2019-04-02T02:10:49.337Z,34.70
2019-04-02T02:11:49.327Z,35.70
2019-04-02T02:12:49.320Z,40.29
2019-04-02T02:13:49.315Z,32.79
2019-04-02T02:14:49.349Z,38.50
2019-04-02T02:15:49.285Z,28.20
2019-04-02T02:16:49.275Z,28.70
2019-04-02T02:17:49.272Z,36.20
2019-04-02T02:18:49.380Z,37.50
2019-04-02T02:19:49.299Z,28.39
2019-04-02T02:20:49.236Z,33.59
2019-04-02T02:21:49.224Z,31.10
2019-04-02T02:22:49.216Z,31.89
2019-04-02T02:23:49.204Z,27.89
2019-04-02T02:24:49.396Z,29.20
2019-04-02T02:25:49.182Z,19.50
2019-04-02T02:26:49.169Z,30.70
2019-04-02T02:27:49.163Z,27.79
2019-04-02T02:28:49.149Z,24.50
2019-04-02T02:29:49.143Z,22.39
2019-04-02T02:30:49.190Z,35.00
2019-04-02T02:31:49.123Z,29.60
2019-04-02T02:32:49.112Z,34.59
2019-04-02T02:33:49.104Z,29.29
2019-04-02T02:34:49.088Z,23.89
2019-04-02T02:35:49.081Z,28.60
2019-04-02T02:36:49.168Z,29.70
2019-04-02T02:37:49.057Z,24.00
2019-04-02T02:38:49.051Z,34.70
2019-04-02T02:39:49.035Z,35.09
2019-04-02T02:40:49.029Z,38.20
2019-04-02T02:41:49.015Z,35.20
2019-04-02T02:42:50.051Z,30.29
2019-04-02T02:43:48.992Z,33.09
2019-04-02T02:44:48.979Z,32.50
2019-04-02T02:45:48.974Z,35.90
2019-04-02T02:46:48.958Z,40.09
2019-04-02T02:47:48.949Z,34.90
2019-04-02T02:48:49.037Z,35.70
2019-04-02T02:49:49.443Z,37.90
2019-04-02T02:50:49.552Z,41.90
2019-04-02T02:51:49.449Z,36.70
2019-04-02T02:52:49.856Z,47.59
2019-04-02T02:53:50.469Z,40.50
2019-04-02T02:54:51.358Z,36.59
2019-04-02T02:55:48.858Z,35.50
2019-04-02T02:56:48.853Z,37.90
2019-04-02T02:57:48.841Z,40.00
2019-04-02T02:58:48.832Z,32.09
2019-04-02T02:59:48.822Z,37.50
2019-04-02T03:00:48.966Z,31.60
2019-04-02T03:01:48.796Z,41.40
2019-04-02T03:02:48.785Z,41.50
2019-04-02T03:03:48.779Z,53.50
2019-04-02T03:04:48.763Z,48.79
2019-04-02T03:05:48.759Z,38.70
2019-04-02T03:06:48.799Z,36.90
2019-04-02T03:07:48.735Z,37.79
2019-04-02T03:08:48.720Z,38.40
2019-04-02T03:09:48.716Z,41.79
2019-04-02T03:10:48.702Z,51.40
2019-04-02T03:11:48.690Z,47.79
2019-04-02T03:12:48.733Z,44.09
2019-04-02T03:13:48.668Z,41.09
2019-04-02T03:14:48.663Z,49.20
2019-04-02T03:15:48.688Z,46.09
2019-04-02T03:16:48.635Z,50.79
2019-04-02T03:17:48.625Z,48.70
2019-04-02T03:18:48.820Z,46.09
2019-04-02T03:19:48.609Z,41.90
2019-04-02T03:20:48.596Z,41.40
2019-04-02T03:21:48.587Z,50.20
2019-04-02T03:22:48.571Z,50.20
2019-04-02T03:23:49.048Z,42.79
2019-04-02T03:24:51.063Z,34.59
2019-04-02T03:25:48.542Z,25.20
2019-04-02T03:26:51.446Z,35.00
2019-04-02T03:27:48.523Z,37.09
2019-04-02T03:28:48.512Z,36.59
2019-04-02T03:29:48.500Z,34.20
2019-04-02T03:30:48.592Z,33.09
2019-04-02T03:31:48.476Z,31.39
2019-04-02T03:32:48.470Z,28.70
2019-04-02T03:33:49.792Z,27.70
2019-04-02T03:34:48.451Z,24.10
2019-04-02T03:35:50.053Z,24.79
2019-04-02T03:36:48.628Z,22.29
2019-04-02T03:37:48.411Z,20.29
2019-04-02T03:38:48.408Z,14.10
2019-04-02T03:39:48.399Z,21.79
2019-04-02T03:40:48.385Z,23.89
2019-04-02T03:41:48.376Z,16.60
2019-04-02T03:42:48.413Z,25.00
2019-04-02T03:43:48.353Z,17.50
2019-04-02T03:44:48.340Z,21.50
2019-04-02T03:45:48.332Z,18.70
2019-04-02T03:46:48.324Z,23.10
2019-04-02T03:47:48.314Z,17.00
2019-04-02T03:48:48.403Z,21.70
2019-04-02T03:49:48.288Z,21.39
2019-04-02T03:50:52.122Z,19.20
2019-04-02T03:51:48.273Z,26.20
2019-04-02T03:52:48.414Z,20.60
2019-04-02T03:53:49.624Z,22.70
2019-04-02T03:54:48.439Z,18.20
2019-04-02T03:55:48.237Z,18.50
2019-04-02T03:56:48.219Z,22.89
2019-04-02T03:57:48.209Z,21.79
2019-04-02T03:58:48.202Z,24.50
2019-04-02T03:59:48.189Z,19.70
2019-04-02T04:00:48.227Z,17.29
2019-04-02T04:01:48.171Z,19.39
2019-04-02T04:02:48.154Z,24.39
2019-04-02T04:03:48.151Z,20.50
2019-04-02T04:04:48.139Z,21.20
2019-04-02T04:05:48.138Z,15.39
2019-04-02T04:06:48.216Z,21.89
2019-04-02T04:07:48.116Z,23.20
2019-04-02T04:08:48.108Z,27.10
2019-04-02T04:09:48.328Z,18.89
2019-04-02T04:10:48.107Z,23.39
2019-04-02T04:11:48.077Z,24.29
2019-04-02T04:12:48.260Z,15.80
2019-04-02T04:13:48.048Z,24.79
2019-04-02T04:14:48.054Z,22.79
2019-04-02T04:15:48.040Z,24.20
2019-04-02T04:16:48.438Z,21.10
2019-04-02T04:17:48.954Z,21.70
2019-04-02T04:18:49.489Z,24.70
2019-04-02T04:19:49.309Z,25.70
2019-04-02T04:20:47.976Z,22.79
2019-04-02T04:21:47.966Z,17.60
2019-04-02T04:22:47.962Z,22.20
2019-04-02T04:23:48.048Z,18.79
2019-04-02T04:24:47.963Z,24.00
2019-04-02T04:25:47.934Z,18.70
2019-04-02T04:26:47.921Z,16.39
2019-04-02T04:27:47.914Z,24.60
2019-04-02T04:28:47.937Z,18.50
2019-04-02T04:29:47.990Z,20.29
2019-04-02T04:30:47.891Z,19.70
2019-04-02T04:31:47.922Z,15.39
2019-04-02T04:32:47.885Z,15.50
2019-04-02T04:33:47.846Z,21.20
2019-04-02T04:34:48.085Z,19.79
2019-04-02T04:35:47.824Z,16.79
2019-04-02T04:36:47.811Z,25.50
2019-04-02T04:37:47.812Z,19.39
2019-04-02T04:38:47.795Z,20.79
2019-04-02T04:39:49.265Z,14.89
2019-04-02T04:40:49.634Z,20.89
2019-04-02T04:41:49.654Z,17.00
2019-04-02T04:42:50.097Z,15.69
2019-04-02T04:43:47.744Z,18.20
2019-04-02T04:44:47.733Z,17.10
2019-04-02T04:45:47.720Z,16.60
2019-04-02T04:46:47.810Z,10.50
2019-04-02T04:47:47.699Z,10.10
2019-04-02T04:48:47.693Z,12.80
2019-04-02T04:49:47.682Z,13.69
2019-04-02T04:50:47.671Z,16.10
2019-04-02T04:51:47.659Z,11.19
2019-04-02T04:52:47.854Z,15.19
2019-04-02T04:53:47.643Z,14.39
2019-04-02T04:54:47.634Z,18.20
2019-04-02T04:55:47.624Z,17.39
2019-04-02T04:56:47.611Z,13.60
2019-04-02T04:57:47.604Z,21.00
2019-04-02T04:58:47.693Z,18.39
2019-04-02T04:59:47.582Z,20.20
2019-04-02T05:00:49.643Z,18.89
2019-04-02T05:01:48.493Z,23.79
2019-04-02T05:02:47.549Z,18.50
2019-04-02T05:03:47.538Z,20.00
2019-04-02T05:04:47.628Z,23.00
2019-04-02T05:05:47.518Z,16.39
2019-04-02T05:06:47.511Z,18.00
2019-04-02T05:07:48.825Z,17.79
2019-04-02T05:08:47.906Z,17.20
2019-04-02T05:09:48.631Z,17.10
2019-04-02T05:10:48.030Z,17.79
2019-04-02T05:11:47.456Z,15.30
2019-04-02T05:12:47.451Z,17.10
2019-04-02T05:13:47.437Z,22.00
2019-04-02T05:14:47.436Z,19.00
2019-04-02T05:15:47.417Z,19.20
2019-04-02T05:16:47.464Z,20.79
2019-04-02T05:17:47.838Z,20.00
2019-04-02T05:18:47.387Z,14.89
2019-04-02T05:19:47.378Z,15.69
2019-04-02T05:20:47.374Z,19.79
2019-04-02T05:21:47.358Z,16.29
2019-04-02T05:22:47.399Z,18.60
2019-04-02T05:23:47.337Z,12.69
2019-04-02T05:24:47.327Z,17.79
2019-04-02T05:25:47.321Z,14.69
2019-04-02T05:26:47.308Z,17.60
2019-04-02T05:27:47.295Z,14.50
2019-04-02T05:28:47.439Z,19.39
2019-04-02T05:29:47.271Z,16.50
2019-04-02T05:30:47.260Z,20.60
2019-04-02T05:31:47.254Z,17.39
2019-04-02T05:32:47.245Z,19.60
2019-04-02T05:33:47.231Z,16.10
2019-04-02T05:34:47.270Z,17.20
2019-04-02T05:35:47.208Z,13.69
2019-04-02T05:36:47.203Z,18.79
2019-04-02T05:37:47.190Z,14.19
2019-04-02T05:38:48.319Z,12.80
2019-04-02T05:39:47.164Z,18.10
2019-04-02T05:40:47.253Z,19.00
2019-04-02T05:41:47.148Z,19.00
2019-04-02T05:42:47.416Z,15.69
2019-04-02T05:43:47.126Z,17.00
2019-04-02T05:44:47.115Z,18.29
2019-04-02T05:45:47.105Z,17.20
2019-04-02T05:46:47.343Z,11.69
2019-04-02T05:47:47.085Z,13.00
2019-04-02T05:48:47.074Z,13.60
2019-04-02T05:49:47.063Z,14.10
2019-04-02T05:50:47.050Z,16.10
2019-04-02T05:51:47.039Z,17.70
2019-04-02T05:52:47.079Z,17.50
2019-04-02T05:53:47.026Z,16.70
2019-04-02T05:54:47.009Z,15.80
2019-04-02T05:55:47.001Z,17.29
2019-04-02T05:56:46.983Z,17.89
2019-04-02T05:57:47.733Z,18.39
2019-04-02T05:58:48.274Z,15.80
2019-04-02T06:00:46.940Z,16.20
2019-04-02T06:01:46.931Z,17.89
2019-04-02T06:02:46.921Z,15.89
2019-04-02T06:03:46.958Z,14.00
2019-04-02T06:04:46.907Z,20.60
2019-04-02T06:06:47.083Z,17.00
2019-04-02T06:07:46.869Z,14.30
2019-04-02T06:09:46.954Z,15.50
2019-04-02T06:10:46.837Z,18.70
2019-04-02T06:11:47.376Z,13.89
2019-04-02T06:13:46.802Z,12.00
2019-04-02T06:14:46.794Z,15.50
2019-04-02T06:15:46.832Z,11.80
2019-04-02T06:16:46.775Z,16.50
2019-04-02T06:17:46.757Z,19.60
2019-04-02T06:18:46.748Z,18.39
2019-04-02T06:19:47.692Z,16.50
2019-04-02T06:20:47.462Z,13.69
2019-04-02T06:22:46.754Z,16.79
2019-04-02T06:23:46.700Z,16.89
2019-04-02T06:24:46.685Z,15.50
2019-04-02T06:25:49.285Z,12.80
2019-04-02T06:26:46.663Z,16.10
2019-04-02T06:27:48.131Z,20.89
2019-04-02T06:28:46.746Z,15.50
2019-04-02T06:29:46.638Z,16.00
2019-04-02T06:30:46.636Z,17.10
2019-04-02T06:31:46.619Z,15.69
2019-04-02T06:33:13.527Z,18.10
2019-04-02T06:34:11.611Z,19.29
2019-04-02T06:35:13.686Z,18.60
2019-04-02T06:36:11.433Z,13.80
2019-04-02T06:37:13.943Z,17.29
2019-04-02T06:39:11.395Z,15.50
2019-04-02T06:40:36.284Z,16.89
2019-04-02T06:42:01.258Z,16.89
2019-04-02T06:43:01.086Z,16.70
2019-04-02T06:44:01.078Z,17.70
2019-04-02T06:45:33.450Z,9.69
2019-04-02T06:46:25.853Z,13.80
2019-04-02T06:47:27.815Z,13.30
2019-04-02T06:48:25.912Z,10.30
2019-04-02T06:49:27.377Z,15.19
2019-04-02T06:52:50.984Z,12.39
2019-04-02T06:53:58.425Z,11.60
2019-04-02T06:54:50.768Z,15.60
2019-04-02T06:55:50.806Z,11.50
2019-04-02T06:56:50.737Z,10.69
2019-04-02T06:57:51.028Z,11.80
2019-04-02T06:58:50.729Z,9.30
2019-04-02T06:59:50.715Z,8.10
2019-04-02T07:00:50.702Z,10.19
2019-04-02T07:02:23.955Z,11.30
2019-04-02T07:10:50.974Z,19.39
2019-04-02T07:11:51.191Z,10.89
2019-04-02T07:12:52.938Z,11.50
2019-04-02T07:13:50.630Z,12.50
2019-04-02T07:17:50.554Z,13.60
2019-04-02T07:19:15.319Z,11.80
2019-04-02T07:20:40.188Z,10.69
2019-04-02T07:22:06.360Z,9.80
2019-04-02T07:23:04.908Z,9.89
2019-04-02T07:24:08.005Z,9.69
2019-04-02T07:25:20.368Z,10.50
2019-04-02T07:26:29.689Z,14.30
2019-04-02T07:28:29.768Z,11.10
2019-04-02T07:29:54.526Z,8.00
2019-04-02T07:31:19.329Z,11.60
2019-04-02T07:32:57.068Z,11.19
2019-04-02T07:33:44.056Z,11.50
2019-04-02T07:34:44.047Z,8.80
2019-04-02T07:35:44.081Z,15.80
2019-04-02T07:37:08.884Z,10.60
2019-04-02T07:41:33.662Z,7.90
2019-04-02T07:42:33.851Z,8.50
2019-04-02T07:43:59.361Z,14.89
2019-04-02T07:44:35.213Z,8.60
2019-04-02T07:45:33.620Z,12.19
2019-04-02T07:46:33.635Z,10.89
2019-04-02T07:47:33.647Z,10.69
2019-04-02T07:48:58.448Z,11.10
2019-04-02T07:49:58.483Z,12.10
2019-04-02T07:50:58.471Z,10.30
2019-04-02T07:51:58.569Z,14.89
2019-04-02T07:52:58.388Z,16.20
2019-04-02T07:54:23.240Z,15.39
2019-04-02T07:57:47.942Z,15.69
2019-04-02T07:59:03.557Z,15.19
2019-04-02T07:59:47.919Z,15.80
2019-04-02T08:01:12.725Z,18.39
2019-04-02T08:02:12.810Z,16.70
2019-04-02T08:03:12.702Z,9.69
2019-04-02T08:04:12.735Z,9.80
2019-04-02T08:05:12.679Z,12.19
2019-04-02T08:06:12.670Z,10.30
2019-04-02T08:08:16.002Z,10.89
2019-04-02T08:09:12.648Z,15.10
2019-04-02T08:10:12.828Z,8.89
2019-04-02T08:11:12.966Z,11.69
2019-04-02T08:12:12.602Z,13.39
2019-04-02T08:13:12.596Z,11.00
2019-04-02T08:14:12.734Z,12.39
2019-04-02T08:15:12.578Z,15.89
2019-04-02T08:16:12.564Z,10.89
2019-04-02T08:17:13.011Z,9.80
2019-04-02T08:18:13.095Z,12.80
2019-04-02T08:20:12.572Z,9.00
2019-04-02T08:21:12.607Z,9.80
2019-04-02T08:22:15.753Z,10.50
2019-04-02T08:23:12.488Z,13.89
2019-04-02T08:24:12.526Z,15.00
2019-04-02T08:25:14.723Z,12.50
2019-04-02T08:26:12.459Z,8.50
2019-04-02T08:27:12.451Z,9.80
2019-04-02T08:28:13.054Z,10.80
2019-04-02T08:29:12.458Z,10.80
2019-04-02T08:31:12.407Z,11.50
2019-04-02T08:32:12.402Z,11.50
2019-04-02T08:33:14.588Z,10.89
2019-04-02T08:34:12.418Z,9.39
2019-04-02T08:35:37.576Z,11.00
2019-04-02T08:36:37.731Z,11.30
2019-04-02T08:37:54.923Z,14.30
2019-04-02T08:38:39.438Z,15.00
2019-04-02T08:39:37.542Z,12.39
2019-04-02T08:43:40.675Z,13.69
2019-04-02T08:44:38.698Z,11.50
2019-04-02T08:45:37.567Z,11.60
2019-04-02T08:46:37.409Z,13.30
2019-04-02T08:47:37.446Z,13.10
2019-04-02T08:49:02.431Z,14.80
2019-04-02T08:50:02.393Z,14.19
2019-04-02T08:53:02.235Z,13.69
2019-04-02T08:54:28.198Z,14.10
2019-04-02T08:55:26.974Z,15.89
2019-04-02T08:56:56.793Z,12.89
2019-04-02T08:57:55.025Z,11.60
2019-04-02T08:58:52.292Z,12.69
2019-04-02T08:59:55.798Z,13.00
2019-04-02T09:00:59.951Z,10.19
2019-04-02T09:01:52.873Z,11.89
2019-04-02T09:02:51.933Z,13.30
2019-04-02T09:03:51.698Z,13.80
2019-04-02T09:04:51.716Z,15.50
2019-04-02T09:06:16.462Z,14.50
2019-04-02T09:07:17.666Z,15.10
2019-04-02T09:08:16.893Z,13.69
2019-04-02T09:09:41.452Z,11.30
2019-04-02T09:10:41.243Z,13.10
2019-04-02T09:11:41.229Z,13.69
2019-04-02T09:12:41.233Z,12.19
2019-04-02T09:13:42.525Z,13.80
2019-04-02T09:14:41.238Z,8.89
2019-04-02T09:15:41.242Z,8.89
2019-04-02T09:17:13.449Z,10.39
2019-04-02T09:18:05.997Z,10.30
2019-04-02T09:20:06.063Z,13.60
2019-04-02T09:21:05.949Z,9.50
2019-04-02T09:22:06.138Z,12.00
2019-04-02T09:23:05.976Z,12.50
2019-04-02T09:24:05.957Z,13.10
2019-04-02T09:25:30.885Z,10.10
2019-04-02T09:26:59.747Z,13.80
2019-04-02T09:27:55.605Z,14.19
2019-04-02T09:28:55.596Z,10.00
2019-04-02T09:30:20.651Z,16.29
2019-04-02T09:31:20.581Z,19.39
2019-04-02T09:32:35.267Z,14.19
2019-04-02T09:33:22.565Z,23.29
2019-04-02T09:34:22.081Z,22.70
2019-04-02T09:35:20.340Z,21.50
2019-04-02T09:36:20.632Z,21.00
2019-04-02T09:37:20.320Z,19.29
2019-04-02T09:38:20.308Z,19.39
2019-04-02T09:39:20.297Z,20.00
2019-04-02T09:40:20.283Z,21.50
2019-04-02T09:41:20.272Z,18.70
2019-04-02T09:44:20.245Z,18.50
2019-04-02T09:45:20.435Z,19.60
2019-04-02T09:46:20.235Z,19.20
2019-04-02T09:47:27.515Z,28.10
2019-04-02T09:48:45.234Z,31.70
2019-04-02T09:49:45.406Z,29.20
2019-04-02T09:50:46.127Z,24.70
2019-04-02T09:51:45.226Z,26.00
2019-04-02T09:52:45.227Z,28.00
2019-04-02T09:54:10.072Z,18.00
2019-04-02T09:55:10.068Z,18.29
2019-04-02T09:56:10.255Z,19.60
2019-04-02T09:57:10.050Z,16.10
2019-04-02T09:58:10.035Z,17.29
2019-04-02T09:59:50.630Z,17.70
2019-04-02T10:00:34.953Z,17.70
2019-04-02T10:01:34.918Z,21.89
2019-04-02T10:02:34.904Z,20.10
2019-04-02T10:03:35.091Z,21.79
2019-04-02T10:06:50.499Z,14.10
2019-04-02T10:07:59.688Z,10.50
2019-04-02T10:09:24.459Z,13.30
2019-04-02T10:10:25.126Z,13.30
2019-04-02T10:11:24.490Z,10.50
2019-04-02T10:12:24.435Z,13.50
2019-04-02T10:13:24.421Z,11.19
2019-04-02T10:14:24.453Z,16.89
2019-04-02T10:15:24.400Z,13.30
2019-04-02T10:17:50.259Z,11.89
2019-04-02T10:18:26.240Z,13.89
2019-04-02T10:19:31.814Z,13.00
2019-04-02T10:20:24.344Z,12.00
2019-04-02T10:21:24.332Z,12.10
2019-04-02T10:23:24.417Z,11.80
2019-04-02T10:24:24.380Z,15.10
2019-04-02T10:25:24.291Z,16.00
2019-04-02T10:26:24.355Z,13.60
2019-04-02T10:27:26.484Z,12.60
2019-04-02T10:28:24.265Z,18.60
2019-04-02T10:29:49.194Z,13.69
2019-04-02T10:30:49.359Z,14.50
2019-04-02T10:32:01.917Z,10.60
2019-04-02T10:32:49.128Z,14.39
2019-04-02T10:33:49.137Z,13.19
2019-04-02T10:34:52.495Z,12.00
2019-04-02T10:35:49.307Z,8.00
2019-04-02T10:37:14.774Z,13.19
2019-04-02T10:38:01.185Z,13.60
2019-04-02T10:38:50.447Z,14.80
2019-04-02T10:39:49.077Z,15.39
2019-04-02T10:40:49.307Z,16.79
2019-04-02T10:41:49.254Z,13.39
2019-04-02T10:42:49.116Z,12.00
2019-04-02T10:44:13.855Z,13.80
2019-04-02T10:45:24.487Z,17.10
2019-04-02T10:46:15.070Z,19.20
2019-04-02T10:47:15.071Z,13.50
2019-04-02T10:48:13.799Z,15.39
2019-04-02T10:49:13.832Z,13.80
2019-04-02T10:50:13.971Z,14.39
2019-04-02T10:51:14.015Z,11.80
2019-04-02T10:52:47.148Z,14.10
2019-04-02T10:53:13.771Z,13.30
2019-04-02T10:54:13.737Z,12.19
2019-04-02T10:55:13.718Z,13.30
2019-04-02T10:56:13.711Z,15.19
2019-04-02T10:57:13.695Z,14.50
2019-04-02T10:58:15.877Z,18.20
2019-04-02T10:59:15.930Z,14.39
2019-04-02T11:00:13.692Z,12.00
2019-04-02T11:01:38.475Z,12.89
2019-04-02T11:02:38.467Z,13.60
2019-04-02T11:03:38.683Z,9.00
2019-04-02T11:04:39.027Z,11.60
2019-04-02T11:05:38.627Z,11.80
2019-04-02T11:06:51.149Z,12.60
2019-04-02T11:07:38.604Z,11.80
2019-04-02T11:08:38.413Z,17.00
2019-04-02T11:09:38.430Z,11.60
2019-04-02T11:10:39.641Z,18.29
2019-04-02T11:12:03.381Z,18.50
2019-04-02T11:13:03.166Z,18.00
2019-04-02T11:14:15.889Z,11.89
2019-04-02T11:15:05.551Z,13.10
2019-04-02T11:16:17.919Z,18.00
2019-04-02T11:17:03.125Z,14.00
2019-04-02T11:18:03.125Z,18.20
2019-04-02T11:19:30.130Z,12.19
2019-04-02T11:20:27.969Z,13.50
2019-04-02T11:21:27.935Z,11.00
2019-04-02T11:22:52.955Z,14.00
2019-04-02T11:24:10.232Z,15.30
2019-04-02T11:24:52.671Z,15.60
2019-04-02T11:25:52.817Z,16.29
2019-04-02T11:27:17.508Z,18.00
2019-04-02T11:28:17.507Z,15.10
2019-04-02T11:29:19.440Z,12.50
2019-04-02T11:30:20.710Z,18.60
2019-04-02T11:31:19.620Z,19.70
2019-04-02T11:32:17.450Z,14.69
2019-04-02T11:33:30.164Z,18.00
2019-04-02T11:34:17.411Z,15.30
2019-04-02T11:35:17.587Z,18.10
2019-04-02T11:36:17.422Z,14.19
2019-04-02T11:37:49.707Z,18.50
2019-04-02T11:38:42.318Z,17.70
2019-04-02T11:40:07.061Z,17.39
2019-04-02T11:41:07.054Z,14.50
2019-04-02T11:42:07.096Z,14.50
2019-04-02T11:43:31.994Z,15.60
2019-04-02T11:44:31.933Z,16.29
2019-04-02T11:45:32.008Z,14.30
2019-04-02T11:46:56.724Z,14.19
2019-04-02T11:47:56.749Z,13.69
2019-04-02T11:51:56.712Z,17.60
2019-04-02T11:53:21.477Z,21.50
2019-04-02T11:54:23.440Z,20.89
2019-04-02T11:56:21.585Z,17.39
2019-04-02T11:57:21.574Z,21.60
2019-04-02T11:58:49.109Z,18.50
2019-04-02T11:59:23.423Z,16.20
2019-04-02T12:00:21.412Z,16.10
2019-04-02T12:01:21.476Z,20.60
2019-04-02T12:02:46.297Z,21.20
2019-04-02T12:04:11.468Z,17.50
2019-04-02T12:05:20.633Z,15.30
2019-04-02T12:06:13.080Z,16.00
2019-04-02T12:07:11.156Z,22.20
2019-04-02T12:08:15.753Z,16.70
2019-04-02T12:09:44.931Z,20.20
2019-04-02T12:10:12.286Z,18.60
2019-04-02T12:11:10.987Z,15.89
2019-04-02T12:12:10.963Z,18.00
2019-04-02T12:16:10.971Z,20.89
2019-04-02T12:17:35.775Z,22.50
2019-04-02T12:18:35.964Z,22.50
2019-04-02T12:19:35.780Z,18.89
2019-04-02T12:20:35.690Z,17.60
2019-04-02T12:21:35.680Z,15.69
2019-04-02T12:22:35.717Z,18.50
2019-04-02T12:24:00.478Z,22.00
2019-04-02T12:25:00.531Z,25.29
2019-04-02T12:26:25.469Z,23.70
2019-04-02T12:27:25.591Z,22.00
2019-04-02T12:28:25.260Z,38.70
2019-04-02T12:29:50.054Z,27.20
2019-04-02T12:30:50.341Z,24.89
2019-04-02T12:32:18.079Z,27.89
2019-04-02T12:33:39.832Z,24.79
2019-04-02T12:34:39.649Z,22.50
2019-04-02T12:35:41.668Z,26.70
2019-04-02T12:38:41.432Z,17.50
2019-04-02T12:39:41.400Z,20.50
2019-04-02T12:40:41.761Z,21.50
2019-04-02T12:41:43.798Z,17.70
2019-04-02T12:43:39.536Z,26.50
2019-04-02T12:44:39.615Z,17.89
2019-04-02T12:46:11.815Z,33.00
2019-04-02T12:47:30.985Z,29.60
2019-04-02T12:48:04.449Z,21.60
2019-04-02T12:49:07.589Z,21.79
2019-04-02T12:50:17.022Z,18.79
2019-04-02T12:51:04.322Z,21.29
2019-04-02T12:52:04.322Z,25.39
2019-04-02T12:53:04.306Z,22.60
2019-04-02T12:54:04.388Z,22.39
2019-04-02T12:55:04.222Z,25.89
2019-04-02T12:56:04.212Z,39.59
2019-04-02T12:57:06.638Z,42.90
2019-04-02T12:58:04.247Z,35.00
2019-04-02T13:00:29.221Z,28.79
2019-04-02T13:01:29.068Z,27.70
2019-04-02T13:02:54.052Z,19.50
2019-04-02T13:03:53.835Z,17.89
2019-04-02T13:04:53.799Z,29.79
2019-04-02T13:05:59.119Z,23.70
2019-04-02T13:06:57.083Z,23.20
2019-04-02T13:07:53.760Z,21.60
2019-04-02T13:08:55.034Z,26.60
2019-04-02T13:10:22.470Z,23.29
2019-04-02T13:10:53.939Z,30.10
2019-04-02T13:11:53.857Z,28.00
2019-04-02T13:12:53.737Z,24.29
2019-04-02T13:13:53.712Z,28.89
2019-04-02T13:14:53.684Z,26.20
2019-04-02T13:15:53.689Z,28.00
2019-04-02T13:16:53.831Z,28.39
2019-04-02T13:18:09.289Z,38.40
2019-04-02T13:19:18.489Z,31.29
2019-04-02T13:20:18.490Z,28.60
2019-04-02T13:21:18.647Z,39.50
2019-04-02T13:22:18.642Z,34.00
2019-04-02T13:23:18.620Z,36.59
2019-04-02T13:24:22.803Z,41.70
2019-04-02T13:25:19.764Z,41.40
2019-04-02T13:26:18.435Z,33.20
2019-04-02T13:27:18.528Z,36.90
2019-04-02T13:28:43.379Z,42.20
2019-04-02T13:29:43.623Z,39.59
2019-04-02T13:31:23.670Z,42.00
2019-04-02T13:32:07.966Z,39.00
2019-04-02T13:33:08.047Z,41.59
2019-04-02T13:34:08.012Z,39.90
2019-04-02T13:35:09.929Z,36.59
2019-04-02T13:36:07.963Z,40.90
2019-04-02T13:37:07.943Z,55.90
2019-04-02T13:38:08.175Z,34.59
2019-04-02T13:39:07.879Z,31.79
2019-04-02T13:40:10.591Z,32.90
2019-04-02T13:41:07.859Z,24.00
2019-04-02T13:42:07.897Z,27.89
2019-04-02T13:45:40.199Z,28.89
2019-04-02T13:46:32.794Z,27.20
2019-04-02T13:48:05.937Z,20.70
2019-04-02T13:48:32.711Z,26.39
2019-04-02T13:50:13.148Z,28.60
2019-04-02T13:51:30.919Z,25.29
2019-04-02T13:52:00.154Z,24.00
2019-04-02T13:52:57.486Z,31.20
2019-04-02T13:53:57.661Z,39.70
2019-04-02T13:55:13.207Z,39.20
2019-04-02T13:56:05.096Z,46.40
2019-04-02T13:56:57.479Z,32.90
2019-04-02T13:57:58.764Z,35.79
2019-04-02T13:58:58.348Z,29.50
2019-04-02T13:59:58.698Z,30.29
2019-04-02T14:01:22.355Z,26.00
2019-04-02T14:02:47.142Z,18.89
2019-04-02T14:04:11.916Z,27.50
2019-04-02T14:05:12.099Z,27.89
2019-04-02T14:08:11.890Z,25.39
2019-04-02T14:09:36.722Z,29.89
2019-04-02T14:10:38.658Z,30.50
2019-04-02T14:11:36.694Z,35.40
2019-04-02T14:13:36.769Z,40.09
2019-04-02T14:14:38.832Z,34.20
2019-04-02T14:15:36.702Z,37.59
2019-04-02T14:17:04.649Z,31.10
2019-04-02T14:18:26.239Z,31.39
2019-04-02T14:22:26.171Z,51.59
2019-04-02T14:23:28.184Z,42.29
2019-04-02T14:25:26.143Z,25.50
2019-04-02T14:26:26.235Z,19.60
2019-04-02T14:27:29.422Z,14.60
2019-04-02T14:28:51.194Z,32.29
2019-04-02T14:29:50.912Z,29.50
2019-04-02T14:30:50.903Z,24.60
2019-04-02T14:31:58.615Z,21.20
2019-04-02T14:32:50.874Z,22.39
2019-04-02T14:33:51.067Z,17.50
2019-04-02T14:34:50.942Z,18.29
2019-04-02T14:36:16.331Z,17.39
2019-04-02T14:38:33.576Z,19.29
2019-04-02T14:40:07.190Z,36.50
2019-04-02T14:41:05.303Z,50.29
2019-04-02T14:42:30.044Z,42.40
2019-04-02T14:45:30.184Z,25.39
2019-04-02T14:46:54.844Z,28.10
2019-04-02T14:48:19.715Z,19.70
2019-04-02T14:49:44.419Z,40.29
2019-04-02T14:50:44.464Z,42.29
2019-04-02T14:51:44.604Z,35.40
2019-04-02T14:52:45.626Z,46.00
2019-04-02T14:54:09.213Z,33.40
2019-04-02T14:55:09.216Z,32.00
2019-04-02T14:57:09.365Z,36.40
2019-04-02T14:58:22.430Z,38.90
2019-04-02T14:59:09.371Z,39.70
2019-04-02T15:00:34.798Z,46.09
2019-04-02T15:01:09.320Z,46.40
2019-04-02T15:02:09.162Z,38.20
2019-04-02T15:04:34.362Z,41.70
2019-04-02T15:05:58.799Z,39.59
2019-04-02T15:06:58.856Z,41.70
2019-04-02T15:07:58.784Z,54.20
2019-04-02T15:08:58.825Z,46.59
2019-04-02T15:11:24.904Z,47.40
2019-04-02T15:12:23.651Z,45.09
2019-04-02T15:13:23.642Z,57.00
2019-04-02T15:14:23.689Z,54.20
2019-04-02T15:15:23.617Z,45.50